Time;durP1;ratioP1;P1;durP2;ratioP2;P2;SDS_P1;SDS_P2;PMS_P1;PMS_P2;Temp;Humidity;BMP_temperature;BMP_pressure;BME280_temperature;BME280_humidity;BME280_pressure;Samples;Min_cycle;Max_cycle;Signal;HPM_P1;HPM_P2
2022/03/26 00:00:06;;;;;;;8.43;6.55;;;23.00;34.60;;;;;;5026144;28;20030;-45
2022/03/26 00:02:31;;;;;;;7.03;5.82;;;23.00;34.50;;;;;;5025847;28;20044;-45
2022/03/26 00:04:57;;;;;;;7.45;6.38;;;23.00;34.60;;;;;;5026258;28;20033;-44
2022/03/26 00:07:23;;;;;;;8.55;6.63;;;23.00;34.60;;;;;;5026243;28;20053;-44
2022/03/26 00:09:48;;;;;;;8.02;6.38;;;23.00;34.60;;;;;;5026391;28;20505;-43
2022/03/26 00:12:14;;;;;;;7.82;6.57;;;23.00;34.50;;;;;;5025113;28;20033;-44
2022/03/26 00:14:40;;;;;;;7.55;6.32;;;23.00;34.50;;;;;;5026037;28;20029;-44
2022/03/26 00:17:06;;;;;;;7.90;6.90;;;23.00;34.40;;;;;;5025608;28;20076;-44
2022/03/26 00:19:32;;;;;;;7.38;6.20;;;23.00;34.40;;;;;;5025058;28;20033;-44
2022/03/26 00:21:58;;;;;;;9.60;7.13;;;23.00;34.40;;;;;;5025948;28;20040;-44
2022/03/26 00:24:23;;;;;;;8.25;6.93;;;23.00;34.30;;;;;;5025472;28;20034;-44
2022/03/26 00:26:49;;;;;;;8.02;6.88;;;22.90;34.30;;;;;;5025280;28;20099;-44
2022/03/26 00:29:15;;;;;;;9.13;7.15;;;23.00;34.20;;;;;;5026100;28;20029;-44
2022/03/26 00:31:41;;;;;;;8.30;7.00;;;22.90;34.20;;;;;;5025502;28;20098;-44
2022/03/26 00:34:08;;;;;;;8.73;7.22;;;22.90;34.10;;;;;;5026052;28;20112;-44
2022/03/26 00:36:34;;;;;;;7.85;6.75;;;22.90;34.10;;;;;;5025019;28;20048;-44
2022/03/26 00:39:00;;;;;;;8.20;6.80;;;22.90;34.10;;;;;;5026035;28;20025;-44
2022/03/26 00:41:28;;;;;;;7.22;6.50;;;22.90;34.10;;;;;;5025443;28;20029;-44
2022/03/26 00:43:55;;;;;;;8.30;7.38;;;22.90;34.20;;;;;;5025699;28;20690;-44
2022/03/26 00:46:21;;;;;;;9.38;7.88;;;22.90;34.20;;;;;;5025230;28;20026;-45
2022/03/26 00:48:47;;;;;;;8.43;7.47;;;22.90;34.10;;;;;;5025548;28;20076;-44
2022/03/26 00:51:17;;;;;;;8.20;7.32;;;22.90;34.10;;;;;;5025775;28;20033;-44
2022/03/26 00:53:44;;;;;;;9.43;7.55;;;22.90;34.10;;;;;;5025119;28;20022;-44
2022/03/26 00:56:10;;;;;;;9.52;7.40;;;22.90;34.00;;;;;;5024900;28;20068;-44
2022/03/26 00:58:36;;;;;;;7.93;6.95;;;22.80;33.90;;;;;;5025050;28;20081;-44
2022/03/26 01:01:02;;;;;;;9.32;8.20;;;22.90;33.90;;;;;;5025139;28;20031;-43
2022/03/26 01:03:28;;;;;;;8.70;7.80;;;22.80;33.80;;;;;;5026425;28;20086;-42
2022/03/26 01:05:53;;;;;;;8.52;7.10;;;22.80;33.80;;;;;;5025229;28;20032;-44
2022/03/26 01:08:19;;;;;;;8.90;7.68;;;22.80;33.70;;;;;;5026434;28;20036;-44
2022/03/26 01:10:46;;;;;;;8.85;7.78;;;22.80;33.70;;;;;;5026479;28;20030;-44
2022/03/26 01:13:12;;;;;;;9.07;7.97;;;22.80;33.60;;;;;;5026405;28;20083;-44
2022/03/26 01:15:38;;;;;;;9.25;8.02;;;22.80;33.60;;;;;;5026054;28;20033;-45
2022/03/26 01:18:04;;;;;;;8.60;7.45;;;22.80;33.60;;;;;;5026063;28;20029;-44
2022/03/26 01:20:30;;;;;;;9.43;8.27;;;22.70;33.60;;;;;;5024702;28;20086;-43
2022/03/26 01:22:56;;;;;;;8.90;7.15;;;22.80;33.50;;;;;;5026179;28;20030;-45
2022/03/26 01:25:22;;;;;;;9.00;8.10;;;22.80;33.50;;;;;;5024300;28;20025;-44
2022/03/26 01:27:48;;;;;;;9.50;7.55;;;22.70;33.60;;;;;;5024932;28;20041;-45
2022/03/26 01:30:14;;;;;;;9.15;8.13;;;22.70;33.60;;;;;;5025617;28;20104;-45
2022/03/26 01:32:39;;;;;;;10.05;8.75;;;22.70;33.60;;;;;;5026081;28;20089;-44
2022/03/26 01:35:06;;;;;;;11.15;8.43;;;22.80;33.50;;;;;;5024579;28;20105;-44
2022/03/26 01:37:31;;;;;;;9.05;7.75;;;22.80;33.50;;;;;;5023880;28;20099;-44
2022/03/26 01:39:57;;;;;;;9.02;8.00;;;22.70;33.50;;;;;;5025684;28;20628;-44
2022/03/26 01:42:23;;;;;;;9.23;8.07;;;22.70;33.50;;;;;;5023969;28;20036;-44
2022/03/26 01:44:49;;;;;;;9.48;8.15;;;22.70;33.50;;;;;;5025792;28;20037;-44
2022/03/26 01:47:15;;;;;;;9.75;8.70;;;22.70;33.50;;;;;;5024834;28;20045;-44
2022/03/26 01:49:41;;;;;;;8.70;7.80;;;22.70;33.50;;;;;;5025545;28;20041;-44
2022/03/26 01:52:09;;;;;;;10.45;8.93;;;22.70;33.40;;;;;;5025061;28;20026;-44
2022/03/26 01:54:37;;;;;;;9.73;8.20;;;22.70;33.40;;;;;;5025426;28;20091;-44
2022/03/26 01:57:04;;;;;;;10.57;8.52;;;22.70;33.40;;;;;;5024909;28;20038;-44
2022/03/26 01:59:30;;;;;;;11.20;9.13;;;22.70;33.30;;;;;;5025253;28;20033;-44
2022/03/26 02:01:56;;;;;;;11.02;9.38;;;22.70;33.30;;;;;;5025195;28;20100;-45
2022/03/26 02:04:22;;;;;;;9.80;8.25;;;22.60;33.20;;;;;;5024441;28;20101;-43
2022/03/26 02:06:48;;;;;;;9.43;8.43;;;22.60;33.20;;;;;;5024922;28;20079;-45
2022/03/26 02:09:15;;;;;;;10.05;8.60;;;22.60;33.10;;;;;;5024862;28;20115;-43
2022/03/26 02:11:44;;;;;;;10.15;8.65;;;22.60;33.20;;;;;;5024463;28;20109;-44
2022/03/26 02:14:11;;;;;;;10.13;9.00;;;22.60;33.10;;;;;;5025166;28;20091;-44
2022/03/26 02:16:40;;;;;;;8.90;7.82;;;22.60;33.10;;;;;;5024364;28;20083;-44
2022/03/26 02:19:08;;;;;;;11.23;9.55;;;22.60;33.10;;;;;;5023963;28;20025;-44
2022/03/26 02:21:35;;;;;;;10.40;9.30;;;22.60;33.10;;;;;;5025387;28;20028;-44
2022/03/26 02:24:03;;;;;;;9.70;8.70;;;22.60;33.10;;;;;;5025021;28;20018;-44
2022/03/26 02:26:29;;;;;;;10.43;9.07;;;22.60;33.10;;;;;;5024602;28;20064;-44
2022/03/26 02:28:57;;;;;;;11.05;8.73;;;22.60;33.10;;;;;;5024808;28;20103;-43
2022/03/26 02:31:27;;;;;;;9.32;8.35;;;22.60;33.10;;;;;;5024826;28;20087;-44
2022/03/26 02:33:52;;;;;;;11.70;9.20;;;22.60;33.10;;;;;;5024794;28;20104;-44
2022/03/26 02:36:18;;;;;;;11.13;9.00;;;22.60;33.00;;;;;;5024561;28;20479;-44
2022/03/26 02:38:44;;;;;;;10.10;9.00;;;22.60;33.10;;;;;;5024627;28;20037;-45
2022/03/26 02:41:10;;;;;;;10.48;9.40;;;22.60;32.90;;;;;;5024507;28;20100;-44
2022/03/26 02:43:36;;;;;;;11.27;10.00;;;22.60;32.90;;;;;;5024309;28;20026;-45
2022/03/26 02:46:01;;;;;;;10.75;9.65;;;22.50;32.90;;;;;;5023360;28;20387;-44
2022/03/26 02:48:28;;;;;;;10.52;9.25;;;22.50;32.80;;;;;;5024318;28;20111;-44
2022/03/26 02:50:54;;;;;;;10.65;9.55;;;22.50;32.70;;;;;;5023424;28;20040;-44
2022/03/26 02:53:19;;;;;;;10.30;8.90;;;22.50;32.60;;;;;;5022821;28;20025;-44
2022/03/26 02:55:45;;;;;;;10.57;9.32;;;22.50;32.70;;;;;;5023233;28;20026;-45
2022/03/26 02:58:11;;;;;;;11.80;10.60;;;22.50;32.60;;;;;;5024525;28;20517;-44
2022/03/26 03:00:38;;;;;;;11.30;9.52;;;22.50;32.50;;;;;;5023885;28;20041;-44
2022/03/26 03:03:06;;;;;;;11.30;9.95;;;22.50;32.50;;;;;;5023970;28;20021;-44
2022/03/26 03:05:33;;;;;;;10.75;9.65;;;22.50;32.50;;;;;;5024432;28;20088;-43
2022/03/26 03:08:00;;;;;;;11.13;9.85;;;22.40;32.30;;;;;;5024168;28;20083;-43
2022/03/26 03:10:26;;;;;;;10.93;9.77;;;22.50;32.40;;;;;;5024265;28;20030;-44
2022/03/26 03:12:52;;;;;;;11.50;10.30;;;22.50;32.50;;;;;;5023900;28;20041;-44
2022/03/26 03:15:19;;;;;;;12.38;10.77;;;22.50;32.40;;;;;;5023069;28;20061;-44
2022/03/26 03:17:46;;;;;;;11.35;10.25;;;22.40;32.40;;;;;;5023811;28;20096;-44
2022/03/26 03:20:12;;;;;;;10.80;8.93;;;22.40;32.40;;;;;;5023493;28;20428;-43
2022/03/26 03:22:38;;;;;;;10.32;9.25;;;22.40;32.30;;;;;;5023874;28;20021;-44
2022/03/26 03:25:05;;;;;;;11.55;9.98;;;22.40;32.30;;;;;;5025039;28;20053;-44
2022/03/26 03:27:32;;;;;;;10.70;9.57;;;22.40;32.30;;;;;;5023691;28;20564;-43
2022/03/26 03:29:58;;;;;;;10.70;9.60;;;22.40;32.20;;;;;;5023254;28;20030;-44
2022/03/26 03:32:24;;;;;;;10.13;9.13;;;22.40;32.20;;;;;;5028735;28;20026;-44
2022/03/26 03:34:51;;;;;;;12.20;10.10;;;22.40;32.20;;;;;;5028464;28;20104;-44
2022/03/26 03:37:17;;;;;;;10.50;9.35;;;22.40;32.10;;;;;;5028019;28;20034;-42
2022/03/26 03:39:43;;;;;;;10.80;9.73;;;22.40;32.20;;;;;;5028088;28;20049;-44
2022/03/26 03:42:09;;;;;;;11.38;10.18;;;22.40;32.10;;;;;;5026414;28;20099;-45
2022/03/26 03:44:35;;;;;;;10.30;9.25;;;22.40;32.20;;;;;;5027875;28;20076;-44
2022/03/26 03:47:01;;;;;;;10.75;9.48;;;22.40;32.20;;;;;;5026497;28;20029;-43
2022/03/26 03:49:29;;;;;;;10.00;8.95;;;22.40;32.10;;;;;;5028140;28;20045;-44
2022/03/26 03:51:55;;;;;;;10.05;8.95;;;22.40;32.20;;;;;;5028621;28;20038;-44
2022/03/26 03:54:20;;;;;;;9.98;8.98;;;22.40;32.10;;;;;;5027630;28;20076;-44
2022/03/26 03:56:46;;;;;;;10.88;9.77;;;22.40;32.10;;;;;;5027348;28;20033;-44
2022/03/26 03:59:12;;;;;;;11.07;9.90;;;22.30;32.20;;;;;;5028024;28;20381;-43
2022/03/26 04:01:38;;;;;;;10.93;9.48;;;22.30;32.20;;;;;;5028443;28;20032;-44
2022/03/26 04:04:04;;;;;;;9.75;8.75;;;22.30;32.20;;;;;;5027844;28;20093;-44
2022/03/26 04:06:30;;;;;;;9.98;8.95;;;22.30;32.20;;;;;;5027618;28;20055;-44
2022/03/26 04:08:55;;;;;;;10.48;9.38;;;22.30;32.20;;;;;;5028128;28;20078;-43
2022/03/26 04:11:21;;;;;;;10.10;8.90;;;22.30;32.10;;;;;;5027683;28;20485;-44
2022/03/26 04:13:50;;;;;;;10.02;8.98;;;22.30;32.10;;;;;;5027759;28;20552;-44
2022/03/26 04:16:16;;;;;;;10.25;8.85;;;22.30;32.10;;;;;;5026196;28;20034;-44
2022/03/26 04:18:42;;;;;;;11.45;9.73;;;22.30;32.10;;;;;;5027668;28;20036;-44
2022/03/26 04:21:08;;;;;;;10.30;9.20;;;22.30;32.10;;;;;;5028112;28;20389;-43
2022/03/26 04:23:33;;;;;;;10.63;9.15;;;22.30;32.10;;;;;;5027480;28;20029;-44
2022/03/26 04:25:59;;;;;;;10.70;9.60;;;22.30;32.10;;;;;;5026882;28;20056;-44
2022/03/26 04:28:26;;;;;;;10.60;9.50;;;22.30;32.00;;;;;;5026998;28;20119;-44
2022/03/26 04:30:52;;;;;;;10.85;9.38;;;22.30;32.00;;;;;;5027193;28;20619;-43
2022/03/26 04:33:18;;;;;;;10.65;9.55;;;22.30;31.90;;;;;;5027242;28;20030;-44
2022/03/26 04:35:43;;;;;;;10.25;9.25;;;22.30;31.90;;;;;;5027052;28;20049;-44
2022/03/26 04:38:09;;;;;;;10.43;9.32;;;22.30;31.90;;;;;;5027131;28;20104;-43
2022/03/26 04:40:35;;;;;;;10.48;9.38;;;22.30;32.00;;;;;;5027354;28;20034;-44
2022/03/26 04:43:00;;;;;;;10.52;9.13;;;22.30;31.90;;;;;;5026004;28;20088;-44
2022/03/26 04:45:26;;;;;;;10.25;9.15;;;22.30;32.00;;;;;;5026803;28;20653;-45
2022/03/26 04:47:52;;;;;;;10.20;8.93;;;22.30;32.00;;;;;;5026101;28;20029;-43
2022/03/26 04:50:18;;;;;;;10.50;9.40;;;22.30;32.00;;;;;;5027034;28;20037;-44
2022/03/26 04:52:44;;;;;;;10.88;9.70;;;22.30;31.90;;;;;;5026813;28;20033;-45
2022/03/26 04:55:11;;;;;;;11.85;10.13;;;22.20;31.80;;;;;;5026621;28;20116;-44
2022/03/26 04:57:43;;;;;;;11.55;10.38;;;22.20;31.80;;;;;;5025725;28;20109;-44
2022/03/26 05:00:11;;;;;;;10.38;9.35;;;22.20;31.80;;;;;;5026337;28;20065;-44
2022/03/26 05:02:38;;;;;;;10.48;9.38;;;22.20;31.80;;;;;;5025731;28;20025;-44
2022/03/26 05:05:05;;;;;;;10.40;9.30;;;22.20;31.80;;;;;;5025347;28;20246;-44
2022/03/26 05:07:46;;;;;;;9.85;8.85;;;22.20;31.70;;;;;;5026568;28;20313;-44
2022/03/26 05:10:17;;;;;;;10.05;9.05;;;22.20;31.70;;;;;;5026447;28;20107;-43
2022/03/26 05:12:44;;;;;;;10.93;9.82;;;22.20;31.70;;;;;;5026260;28;20026;-44
2022/03/26 05:15:11;;;;;;;10.43;9.32;;;22.20;31.70;;;;;;5026611;28;20052;-44
2022/03/26 05:17:37;;;;;;;10.35;9.35;;;22.20;31.70;;;;;;5026181;28;20037;-44
2022/03/26 05:20:04;;;;;;;10.52;9.43;;;22.20;31.70;;;;;;5026261;28;20021;-44
2022/03/26 05:22:30;;;;;;;11.18;9.43;;;22.20;31.70;;;;;;5025581;28;20025;-45
2022/03/26 05:24:56;;;;;;;10.80;9.70;;;22.20;31.70;;;;;;5025770;28;20032;-43
2022/03/26 05:27:22;;;;;;;10.98;9.70;;;22.20;31.70;;;;;;5025250;28;20057;-43
2022/03/26 05:29:49;;;;;;;9.93;8.90;;;22.20;31.70;;;;;;5025272;28;20060;-44
2022/03/26 05:32:15;;;;;;;10.77;9.57;;;22.10;31.80;;;;;;5025521;28;20029;-44
2022/03/26 05:34:42;;;;;;;11.05;9.82;;;22.10;31.70;;;;;;5025234;28;20037;-43
2022/03/26 05:37:07;;;;;;;11.18;9.98;;;22.20;31.70;;;;;;5025162;28;20101;-44
2022/03/26 05:39:33;;;;;;;10.48;9.38;;;22.20;31.70;;;;;;5025516;28;20132;-44
2022/03/26 05:41:59;;;;;;;10.93;9.48;;;22.20;31.70;;;;;;5025266;28;20025;-44
2022/03/26 05:44:25;;;;;;;10.45;9.32;;;22.20;31.70;;;;;;5025390;28;20029;-45
2022/03/26 05:46:51;;;;;;;10.95;9.20;;;22.10;31.60;;;;;;5025044;28;20486;-45
2022/03/26 05:49:17;;;;;;;10.60;9.50;;;22.20;31.50;;;;;;5024628;28;20052;-43
2022/03/26 05:51:44;;;;;;;11.45;10.25;;;22.10;31.50;;;;;;5025467;28;20021;-44
2022/03/26 05:54:10;;;;;;;12.77;9.82;;;22.10;31.60;;;;;;5023576;28;20025;-44
2022/03/26 05:56:39;;;;;;;10.55;9.43;;;22.10;31.50;;;;;;5024236;28;20043;-43
2022/03/26 05:59:05;;;;;;;10.55;9.45;;;22.10;31.60;;;;;;5024431;28;20043;-44
2022/03/26 06:01:34;;;;;;;10.93;9.57;;;22.10;31.60;;;;;;5023847;28;20280;-44
2022/03/26 06:04:00;;;;;;;10.57;9.05;;;22.10;31.60;;;;;;5021343;28;20029;-44
2022/03/26 06:06:25;;;;;;;10.25;9.15;;;22.10;31.80;;;;;;5021478;28;20609;-45
2022/03/26 06:08:51;;;;;;;11.30;9.95;;;22.10;32.10;;;;;;5020549;28;20040;-43
2022/03/26 06:11:17;;;;;;;11.57;9.95;;;22.10;32.50;;;;;;5022912;28;20022;-43
2022/03/26 06:13:43;;;;;;;11.10;9.60;;;22.10;33.40;;;;;;5021911;28;20042;-44
2022/03/26 06:16:09;;;;;;;9.90;8.85;;;22.10;33.90;;;;;;5022172;28;20078;-44
2022/03/26 06:18:34;;;;;;;11.40;9.50;;;22.10;35.10;;;;;;5020474;28;20095;-43
2022/03/26 06:21:00;;;;;;;9.48;8.48;;;22.10;34.60;;;;;;5013855;28;20489;-44
2022/03/26 06:23:26;;;;;;;10.65;8.98;;;22.10;34.40;;;;;;5022199;28;20052;-44
2022/03/26 06:25:52;;;;;;;9.52;8.50;;;22.20;34.30;;;;;;5021993;28;20022;-43
2022/03/26 06:28:19;;;;;;;9.80;8.05;;;22.20;34.10;;;;;;5020639;28;20109;-44
2022/03/26 06:30:49;;;;;;;9.38;8.05;;;22.20;34.30;;;;;;5023209;28;20675;-44
2022/03/26 06:33:16;;;;;;;9.50;8.50;;;22.30;34.40;;;;;;5021538;28;20037;-43
2022/03/26 06:35:42;;;;;;;9.27;8.07;;;22.30;34.30;;;;;;5021940;28;20102;-44
2022/03/26 06:38:09;;;;;;;9.43;7.43;;;22.40;34.10;;;;;;5022134;28;20080;-44
2022/03/26 06:40:35;;;;;;;9.75;8.07;;;22.40;33.90;;;;;;5022386;28;20119;-43
2022/03/26 06:43:01;;;;;;;8.75;7.47;;;22.50;33.90;;;;;;5023652;28;20452;-43
2022/03/26 06:45:26;;;;;;;11.95;7.95;;;22.60;34.00;;;;;;5024037;28;20075;-43
2022/03/26 06:47:52;;;;;;;9.80;7.78;;;22.60;34.20;;;;;;5023371;28;20022;-43
2022/03/26 06:50:18;;;;;;;12.15;8.23;;;22.70;34.30;;;;;;5023015;28;20828;-44
2022/03/26 06:52:47;;;;;;;14.05;9.18;;;22.70;34.30;;;;;;5023591;28;20037;-42
2022/03/26 06:55:12;;;;;;;17.67;10.57;;;22.80;34.20;;;;;;5015650;28;20027;-44
2022/03/26 06:57:38;;;;;;;12.48;9.98;;;22.80;33.70;;;;;;5020018;28;20029;-44
2022/03/26 07:00:05;;;;;;;12.20;9.20;;;22.80;33.50;;;;;;5023288;28;20056;-44
2022/03/26 07:02:31;;;;;;;11.63;8.77;;;22.90;33.40;;;;;;5021126;28;20113;-44
2022/03/26 07:04:57;;;;;;;9.60;8.25;;;23.00;33.40;;;;;;5023071;28;20102;-43
2022/03/26 07:07:23;;;;;;;10.43;8.05;;;23.00;33.30;;;;;;5023285;28;20030;-44
2022/03/26 07:09:49;;;;;;;12.50;9.13;;;23.10;34.00;;;;;;5023553;28;20033;-46
2022/03/26 07:12:14;;;;;;;10.43;7.85;;;23.20;33.30;;;;;;5021401;28;20029;-44
2022/03/26 07:14:40;;;;;;;10.52;7.88;;;23.20;33.20;;;;;;5023593;28;20033;-44
2022/03/26 07:17:07;;;;;;;9.65;7.22;;;23.20;33.10;;;;;;5022863;28;20127;-44
2022/03/26 07:19:33;;;;;;;11.15;6.78;;;23.30;33.20;;;;;;5023771;28;20052;-44
2022/03/26 07:21:58;;;;;;;9.02;7.22;;;23.40;33.10;;;;;;5023912;28;20025;-43
2022/03/26 07:24:24;;;;;;;9.07;6.88;;;23.40;33.00;;;;;;5021858;28;20367;-42
2022/03/26 07:26:50;;;;;;;8.05;6.63;;;23.40;32.90;;;;;;5022888;28;20104;-44
2022/03/26 07:29:15;;;;;;;7.65;6.53;;;23.50;32.90;;;;;;5022336;28;20114;-43
2022/03/26 07:31:41;;;;;;;8.15;6.47;;;23.50;32.90;;;;;;5032030;28;21586;-44
2022/03/26 07:34:07;;;;;;;8.00;6.18;;;23.50;33.00;;;;;;5023174;28;20022;-43
2022/03/26 07:36:33;;;;;;;7.70;6.15;;;23.50;32.90;;;;;;5022311;28;20033;-43
2022/03/26 07:38:59;;;;;;;7.82;6.15;;;23.60;32.80;;;;;;5023225;28;20025;-44
2022/03/26 07:41:25;;;;;;;7.18;6.15;;;23.50;32.80;;;;;;5022978;28;20033;-44
2022/03/26 07:43:51;;;;;;;8.02;6.63;;;23.60;32.80;;;;;;5023109;28;20030;-45
2022/03/26 07:46:18;;;;;;;10.50;6.22;;;23.60;32.80;;;;;;5022279;28;20084;-44
2022/03/26 07:48:45;;;;;;;7.93;5.95;;;23.60;32.80;;;;;;5022720;28;20045;-44
2022/03/26 07:51:11;;;;;;;8.60;5.97;;;23.60;32.80;;;;;;5022776;28;20520;-44
2022/03/26 07:53:37;;;;;;;8.60;5.90;;;23.60;32.80;;;;;;5021151;28;20037;-44
2022/03/26 07:56:03;;;;;;;6.80;5.43;;;23.60;32.70;;;;;;5023245;28;20080;-44
2022/03/26 07:58:28;;;;;;;6.50;5.72;;;23.60;32.70;;;;;;5021886;28;20032;-44
2022/03/26 08:00:54;;;;;;;6.82;5.90;;;23.60;32.70;;;;;;5022434;28;20021;-44
2022/03/26 08:03:20;;;;;;;6.30;5.30;;;23.60;32.70;;;;;;5021690;28;20017;-44
2022/03/26 08:05:46;;;;;;;7.18;5.35;;;23.60;33.40;;;;;;5019982;28;20021;-44
2022/03/26 08:08:11;;;;;;;8.02;5.75;;;23.60;32.70;;;;;;5021730;28;20026;-44
2022/03/26 08:10:37;;;;;;;6.97;5.75;;;23.60;32.60;;;;;;5020199;28;20032;-46
2022/03/26 08:13:04;;;;;;;7.03;5.95;;;23.60;32.70;;;;;;5021809;28;20037;-45
2022/03/26 08:15:30;;;;;;;8.20;6.15;;;23.60;32.70;;;;;;5022837;28;20026;-44
2022/03/26 08:17:58;;;;;;;7.40;6.05;;;23.60;32.80;;;;;;5024161;28;20512;-44
2022/03/26 08:20:26;;;;;;;7.25;5.88;;;23.60;33.00;;;;;;5026217;28;20520;-44
2022/03/26 08:22:52;;;;;;;7.50;6.20;;;23.60;33.10;;;;;;5025180;28;20033;-45
2022/03/26 08:26:19;;;;;;;9.07;6.65;;;23.60;33.10;;;;;;5025728;28;20029;-44
2022/03/26 08:28:08;;;;;;;8.82;6.05;;;23.60;33.30;;;;;;5024946;28;20375;-44
2022/03/26 08:30:34;;;;;;;7.65;5.72;;;23.60;33.30;;;;;;5026074;28;20033;-44
2022/03/26 08:33:04;;;;;;;7.00;5.65;;;23.60;33.30;;;;;;5026058;28;20033;-45
2022/03/26 08:35:48;;;;;;;7.07;5.82;;;23.60;33.40;;;;;;5026025;28;20092;-45
2022/03/26 08:38:14;;;;;;;8.18;6.20;;;23.60;33.40;;;;;;5026286;28;20096;-45
2022/03/26 08:40:40;;;;;;;7.40;5.88;;;23.60;33.50;;;;;;5026096;28;20101;-44
2022/03/26 08:43:06;;;;;;;7.30;6.05;;;23.60;33.50;;;;;;5025336;28;20049;-43
2022/03/26 08:45:32;;;;;;;7.82;6.45;;;23.60;33.50;;;;;;5025650;28;20053;-45
2022/03/26 08:47:58;;;;;;;7.82;5.80;;;23.60;33.50;;;;;;5024180;28;20497;-44
2022/03/26 08:50:24;;;;;;;8.82;6.18;;;23.60;33.60;;;;;;5023353;28;20118;-44
2022/03/26 08:52:51;;;;;;;7.22;6.22;;;23.60;33.70;;;;;;5024975;28;20049;-44
2022/03/26 08:55:18;;;;;;;8.18;6.15;;;23.60;33.70;;;;;;5025575;28;20036;-45
2022/03/26 08:57:44;;;;;;;6.57;5.40;;;23.60;33.70;;;;;;5031087;28;20572;-45
2022/03/26 09:00:12;;;;;;;6.05;5.25;;;23.60;33.80;;;;;;5027646;28;20041;-44
2022/03/26 09:02:39;;;;;;;7.55;6.00;;;23.60;33.90;;;;;;5024931;28;20123;-44
2022/03/26 09:05:08;;;;;;;8.10;5.53;;;23.60;34.30;;;;;;5013803;28;20143;-45
2022/03/26 09:07:34;;;;;;;7.55;5.20;;;23.60;34.40;;;;;;5023831;28;20096;-45
2022/03/26 09:10:00;;;;;;;7.30;5.85;;;23.70;34.50;;;;;;5023995;28;20026;-44
2022/03/26 09:12:26;;;;;;;8.07;5.82;;;23.60;34.60;;;;;;5023710;28;20034;-45
2022/03/26 09:14:52;;;;;;;6.65;5.03;;;23.70;34.70;;;;;;5025086;28;20022;-44
2022/03/26 09:17:19;;;;;;;6.68;4.75;;;23.70;34.60;;;;;;5024598;28;20075;-44
2022/03/26 09:19:44;;;;;;;7.03;5.50;;;23.70;34.60;;;;;;5025232;28;20037;-44
2022/03/26 09:22:10;;;;;;;6.78;5.68;;;23.70;34.50;;;;;;5024898;28;20013;-44
2022/03/26 09:24:36;;;;;;;7.40;5.30;;;23.70;34.50;;;;;;5024916;28;20021;-44
2022/03/26 09:27:02;;;;;;;7.10;5.43;;;23.70;34.50;;;;;;5024782;28;20033;-45
2022/03/26 09:29:28;;;;;;;7.00;5.55;;;23.70;34.50;;;;;;5023494;28;20453;-44
2022/03/26 09:31:54;;;;;;;7.20;5.03;;;23.70;34.50;;;;;;5024539;28;20445;-45
2022/03/26 09:34:21;;;;;;;6.70;5.15;;;23.80;34.40;;;;;;5024725;28;20026;-45
2022/03/26 09:36:47;;;;;;;7.47;5.70;;;23.80;34.30;;;;;;5024320;28;20021;-44
2022/03/26 09:39:13;;;;;;;9.30;5.63;;;23.80;34.30;;;;;;5024107;28;20088;-45
2022/03/26 09:41:39;;;;;;;7.40;5.15;;;23.80;34.30;;;;;;5024676;28;20424;-45
2022/03/26 09:44:06;;;;;;;7.57;5.97;;;23.70;34.30;;;;;;5024478;28;20045;-44
2022/03/26 09:46:35;;;;;;;7.90;5.53;;;23.70;34.30;;;;;;5024500;28;20561;-44
2022/03/26 09:49:02;;;;;;;8.50;5.28;;;23.70;34.30;;;;;;5024471;28;20112;-45
2022/03/26 09:51:29;;;;;;;6.97;5.50;;;23.70;34.40;;;;;;5024419;28;20068;-44
2022/03/26 09:53:55;;;;;;;7.65;5.35;;;23.80;34.30;;;;;;5023799;28;20033;-44
2022/03/26 09:56:22;;;;;;;7.38;6.03;;;23.70;34.20;;;;;;5024159;28;20036;-44
2022/03/26 09:58:51;;;;;;;8.32;6.10;;;23.80;34.10;;;;;;5021832;28;20037;-44
2022/03/26 10:01:17;;;;;;;7.60;5.78;;;23.80;34.10;;;;;;5025085;28;20065;-44
2022/03/26 10:04:16;;;;;;;7.20;5.85;;;23.80;34.00;;;;;;5023364;28;20438;-45
2022/03/26 10:06:55;;;;;;;8.48;6.20;;;23.80;34.00;;;;;;5024272;28;20064;-44
2022/03/26 10:09:44;;;;;;;8.07;5.35;;;23.70;33.90;;;;;;5023953;28;20025;-45
2022/03/26 10:12:17;;;;;;;7.20;5.50;;;23.80;34.00;;;;;;5018921;28;20075;-45
2022/03/26 10:14:48;;;;;;;19.83;9.50;;;23.80;34.00;;;;;;5024461;28;20135;-44
2022/03/26 10:17:19;;;;;;;18.55;10.80;;;23.70;34.30;;;;;;5023901;28;20071;-44
2022/03/26 10:19:50;;;;;;;18.50;10.55;;;23.80;34.40;;;;;;5024168;28;20057;-44
2022/03/26 10:22:23;;;;;;;16.90;8.85;;;23.80;34.30;;;;;;5023939;28;20029;-44
2022/03/26 10:24:50;;;;;;;17.25;9.32;;;23.80;34.60;;;;;;5023585;28;20036;-44
2022/03/26 10:27:21;;;;;;;17.67;9.25;;;23.80;34.50;;;;;;5021966;28;20030;-44
2022/03/26 10:29:55;;;;;;;13.70;8.45;;;23.80;34.70;;;;;;5023739;28;20579;-44
2022/03/26 10:32:41;;;;;;;14.45;8.63;;;23.80;34.50;;;;;;5023425;28;20037;-45
2022/03/26 10:35:22;;;;;;;14.05;8.13;;;23.80;34.60;;;;;;5024164;28;20041;-44
2022/03/26 10:37:48;;;;;;;17.77;8.93;;;23.80;34.70;;;;;;5022564;28;20028;-44
2022/03/26 10:40:21;;;;;;;13.00;8.18;;;23.80;34.80;;;;;;5023457;28;20108;-44
2022/03/26 10:42:58;;;;;;;11.75;7.53;;;23.80;34.70;;;;;;5023480;28;20122;-46
2022/03/26 10:45:24;;;;;;;10.23;6.85;;;23.90;34.80;;;;;;5023453;28;20033;-43
2022/03/26 10:50:58;;;;;;;10.75;7.22;;;23.90;35.00;;;;;;5473698;22;20137;-50
2022/03/26 10:53:41;;;;;;;12.00;7.35;;;23.90;35.70;;;;;;5015802;28;20025;-51
2022/03/26 10:56:10;;;;;;;9.32;7.10;;;23.90;35.80;;;;;;5003431;28;20030;-50
2022/03/26 10:58:36;;;;;;;11.07;7.32;;;23.90;35.20;;;;;;5015218;28;20034;-49
2022/03/26 11:01:03;;;;;;;9.68;6.88;;;23.90;35.40;;;;;;5023590;28;20060;-49
2022/03/26 11:03:29;;;;;;;9.50;6.68;;;24.00;35.40;;;;;;5023020;28;20113;-49
2022/03/26 11:05:56;;;;;;;8.80;7.55;;;24.00;36.00;;;;;;5005646;28;20681;-49
2022/03/26 11:08:30;;;;;;;10.23;7.25;;;24.00;36.00;;;;;;5023207;28;20040;-50
2022/03/26 11:10:56;;;;;;;9.07;7.53;;;24.00;35.80;;;;;;5022485;28;20536;-49
2022/03/26 11:13:24;;;;;;;9.93;7.53;;;24.00;35.50;;;;;;5018471;28;20440;-50
2022/03/26 11:15:56;;;;;;;10.43;7.75;;;24.00;35.60;;;;;;5023283;28;20117;-49
2022/03/26 11:18:30;;;;;;;11.77;8.90;;;24.00;35.40;;;;;;5022670;28;20878;-50
2022/03/26 11:21:20;;;;;;;10.63;8.63;;;24.10;35.40;;;;;;5011857;28;20084;-49
2022/03/26 11:24:10;;;;;;;9.95;8.18;;;24.10;36.30;;;;;;5013467;28;20677;-50
2022/03/26 11:26:53;;;;;;;11.73;7.80;;;24.10;35.40;;;;;;5020961;28;20036;-50
2022/03/26 11:29:45;;;;;;;9.65;8.20;;;24.10;35.00;;;;;;5019372;28;20030;-49
2022/03/26 11:32:24;;;;;;;11.18;7.97;;;24.10;35.50;;;;;;5022322;28;20029;-51
2022/03/26 11:35:07;;;;;;;11.50;8.25;;;24.10;35.10;;;;;;5021952;28;20048;-49
2022/03/26 11:37:32;;;;;;;;;;;24.20;34.80;;;;;;5022677;28;20033;-48
2022/03/26 11:39:58;;;;;;;9.85;6.75;;;24.20;34.50;;;;;;5020573;28;19920;-49
2022/03/26 11:42:37;;;;;;;11.43;8.85;;;24.20;34.50;;;;;;5017855;28;20284;-49
2022/03/26 11:51:22;;;;;;;10.85;8.93;;;24.30;34.20;;;;;;5021064;28;20384;-49
2022/03/26 11:53:49;;;;;;;11.98;8.95;;;24.30;33.90;;;;;;5025709;28;20049;-50
2022/03/26 11:56:30;;;;;;;11.05;9.15;;;24.30;33.60;;;;;;5021130;28;20029;-49
2022/03/26 11:59:18;;;;;;;11.50;8.95;;;24.30;33.20;;;;;;5020239;28;20040;-50
2022/03/26 12:01:47;;;;;;;10.52;7.93;;;24.30;33.20;;;;;;5021175;28;20096;-49
2022/03/26 12:04:15;;;;;;;12.45;9.77;;;24.30;32.80;;;;;;5018952;28;20026;-50
2022/03/26 12:06:57;;;;;;;11.20;9.30;;;24.40;32.40;;;;;;5026877;28;20112;-49
2022/03/26 12:09:34;;;;;;;9.85;7.93;;;24.40;32.60;;;;;;5027030;28;20076;-48
2022/03/26 12:12:13;;;;;;;10.50;8.60;;;24.40;32.40;;;;;;5026655;28;20033;-49
2022/03/26 12:15:08;;;;;;;11.60;8.65;;;24.40;32.20;;;;;;5026331;28;20026;-49
2022/03/26 12:17:50;;;;;;;10.63;8.50;;;24.40;32.20;;;;;;5026220;28;20041;-49
2022/03/26 12:20:42;;;;;;;9.87;8.03;;;24.40;32.00;;;;;;5026424;28;20025;-49
2022/03/26 12:23:28;;;;;;;12.38;8.88;;;24.40;31.80;;;;;;5026303;28;20026;-49
2022/03/26 12:26:01;;;;;;;14.02;9.60;;;24.40;31.70;;;;;;5026682;28;20521;-48
2022/03/26 12:28:37;;;;;;;10.75;8.98;;;24.40;31.30;;;;;;5025895;28;20037;-50
2022/03/26 12:31:06;;;;;;;10.60;8.48;;;24.40;30.80;;;;;;5025019;28;20037;-48
2022/03/26 12:33:43;;;;;;;9.43;8.43;;;24.40;30.60;;;;;;5018892;28;20037;-50
2022/03/26 12:36:10;;;;;;;11.60;8.95;;;24.40;30.50;;;;;;5025842;28;20120;-49
2022/03/26 12:38:37;;;;;;;11.02;9.55;;;24.40;30.10;;;;;;5025110;28;20087;-48
2022/03/26 12:41:05;;;;;;;9.05;7.45;;;24.40;30.40;;;;;;5025092;28;20653;-49
2022/03/26 12:43:31;;;;;;;8.40;6.97;;;24.40;30.80;;;;;;5005279;28;20455;-49
2022/03/26 12:45:59;;;;;;;9.15;7.20;;;24.40;31.20;;;;;;5023180;28;20061;-48
2022/03/26 12:48:29;;;;;;;8.27;6.78;;;24.50;31.70;;;;;;5026654;28;20029;-49
2022/03/26 12:51:03;;;;;;;7.35;6.00;;;24.50;31.90;;;;;;5025769;28;20398;-50
2022/03/26 12:53:37;;;;;;;8.68;6.65;;;24.50;32.20;;;;;;5025822;28;20048;-49